sensor_id;sensor_type;location;lat;lon;timestamp;pressure;altitude;pressure_sealevel;temperature;humidity
48774;BME280;34576;0.000;0.000;2023-04-10T00:02:53;97123.06;;;13.80;55.31
48774;BME280;34576;0.000;0.000;2023-04-10T00:09:53;97119.59;;;13.79;55.15
48774;BME280;34576;0.000;0.000;2023-04-10T00:16:53;97118.81;;;13.79;54.98
48774;BME280;34576;0.000;0.000;2023-04-10T00:23:54;97118.03;;;13.78;55.35
48774;BME280;34576;0.000;0.000;2023-04-10T00:30:54;97114.78;;;13.76;55.45
48774;BME280;34576;0.000;0.000;2023-04-10T00:37:55;97103.44;;;13.76;55.11
48774;BME280;34576;0.000;0.000;2023-04-10T00:44:55;97100.31;;;13.79;55.34
48774;BME280;34576;0.000;0.000;2023-04-10T00:51:56;97096.78;;;13.73;55.39
48774;BME280;34576;0.000;0.000;2023-04-10T00:58:56;97090.94;;;13.71;55.04
48774;BME280;34576;0.000;0.000;2023-04-10T01:13:05;97081.38;;;13.70;55.15
48774;BME280;34576;0.000;0.000;2023-04-10T01:20:23;97081.38;;;13.70;55.09
48774;BME280;34576;0.000;0.000;2023-04-10T01:27:46;97082.19;;;13.71;55.17
48774;BME280;34576;0.000;0.000;2023-04-10T01:34:50;97086.13;;;13.68;55.32
48774;BME280;34576;0.000;0.000;2023-04-10T01:41:51;97090.09;;;13.71;55.33
48774;BME280;34576;0.000;0.000;2023-04-10T01:48:55;97085.88;;;13.70;54.93
48774;BME280;34576;0.000;0.000;2023-04-10T01:55:58;97086.91;;;13.69;55.02
48774;BME280;34576;0.000;0.000;2023-04-10T02:03:00;97076.56;;;13.67;55.27
48774;BME280;34576;0.000;0.000;2023-04-10T02:10:02;97073.94;;;13.67;55.29
48774;BME280;34576;0.000;0.000;2023-04-10T02:17:03;97082.91;;;13.66;55.33
48774;BME280;34576;0.000;0.000;2023-04-10T02:24:05;97100.59;;;13.66;55.11
48774;BME280;34576;0.000;0.000;2023-04-10T02:31:05;97090.50;;;13.62;55.07
48774;BME280;34576;0.000;0.000;2023-04-10T02:38:06;97073.81;;;13.62;54.90
48774;BME280;34576;0.000;0.000;2023-04-10T02:45:10;97082.78;;;13.61;55.33
48774;BME280;34576;0.000;0.000;2023-04-10T02:52:14;97070.63;;;13.60;54.88
48774;BME280;34576;0.000;0.000;2023-04-10T02:59:16;97079.34;;;13.60;54.89
48774;BME280;34576;0.000;0.000;2023-04-10T03:06:17;97073.28;;;13.60;55.45
48774;BME280;34576;0.000;0.000;2023-04-10T03:13:19;97066.38;;;13.59;55.11
48774;BME280;34576;0.000;0.000;2023-04-10T03:20:20;97050.75;;;13.57;55.04
48774;BME280;34576;0.000;0.000;2023-04-10T03:27:20;97040.19;;;13.57;55.14
48774;BME280;34576;0.000;0.000;2023-04-10T03:34:20;97028.25;;;13.55;55.11
48774;BME280;34576;0.000;0.000;2023-04-10T03:41:21;97016.06;;;13.54;55.30
48774;BME280;34576;0.000;0.000;2023-04-10T03:48:24;97014.00;;;13.56;54.98
48774;BME280;34576;0.000;0.000;2023-04-10T03:55:27;97017.44;;;13.56;55.27
48774;BME280;34576;0.000;0.000;2023-04-10T04:02:28;97013.41;;;13.54;54.91
48774;BME280;34576;0.000;0.000;2023-04-10T04:09:29;97018.94;;;13.52;54.92
48774;BME280;34576;0.000;0.000;2023-04-10T04:17:05;97023.97;;;13.54;54.98
48774;BME280;34576;0.000;0.000;2023-04-10T04:24:11;97026.63;;;13.54;55.20
48774;BME280;34576;0.000;0.000;2023-04-10T04:31:28;97028.47;;;13.53;55.21
48774;BME280;34576;0.000;0.000;2023-04-10T04:38:49;97022.41;;;13.53;55.14
48774;BME280;34576;0.000;0.000;2023-04-10T04:46:22;97013.91;;;13.51;55.15
48774;BME280;34576;0.000;0.000;2023-04-10T04:53:41;97019.41;;;13.49;55.14
48774;BME280;34576;0.000;0.000;2023-04-10T05:01:01;97023.34;;;13.46;54.99
48774;BME280;34576;0.000;0.000;2023-04-10T05:08:22;97024.94;;;13.48;54.96
48774;BME280;34576;0.000;0.000;2023-04-10T05:15:42;97025.53;;;13.50;55.20
48774;BME280;34576;0.000;0.000;2023-04-10T05:22:49;97021.75;;;13.45;55.09
48774;BME280;34576;0.000;0.000;2023-04-10T05:30:12;97027.28;;;13.44;54.98
48774;BME280;34576;0.000;0.000;2023-04-10T05:37:20;97029.44;;;13.47;54.73
48774;BME280;34576;0.000;0.000;2023-04-10T05:44:30;97023.00;;;13.43;55.23
48774;BME280;34576;0.000;0.000;2023-04-10T05:51:35;97023.34;;;13.46;55.02
48774;BME280;34576;0.000;0.000;2023-04-10T05:58:50;97028.31;;;13.43;55.02
48774;BME280;34576;0.000;0.000;2023-04-10T06:06:02;97028.63;;;13.46;54.82
48774;BME280;34576;0.000;0.000;2023-04-10T06:13:03;97020.13;;;13.44;54.96
48774;BME280;34576;0.000;0.000;2023-04-10T06:20:05;97020.13;;;13.44;55.05
48774;BME280;34576;0.000;0.000;2023-04-10T06:27:05;97024.84;;;13.42;55.19
48774;BME280;34576;0.000;0.000;2023-04-10T06:34:06;97023.00;;;13.43;55.08
48774;BME280;34576;0.000;0.000;2023-04-10T06:41:09;97021.66;;;13.40;55.11
48774;BME280;34576;0.000;0.000;2023-04-10T06:48:09;97027.47;;;13.42;55.28
48774;BME280;34576;0.000;0.000;2023-04-10T06:55:09;97016.69;;;13.44;55.05
48774;BME280;34576;0.000;0.000;2023-04-10T07:02:11;97004.75;;;13.41;55.09
48774;BME280;34576;0.000;0.000;2023-04-10T07:09:12;97000.75;;;13.39;54.87
48774;BME280;34576;0.000;0.000;2023-04-10T07:16:12;97010.03;;;13.41;55.18
48774;BME280;34576;0.000;0.000;2023-04-10T07:23:13;97007.94;;;13.43;54.82
48774;BME280;34576;0.000;0.000;2023-04-10T07:30:13;97008.91;;;13.37;54.97
48774;BME280;34576;0.000;0.000;2023-04-10T07:37:13;97010.53;;;13.38;55.22
48774;BME280;34576;0.000;0.000;2023-04-10T07:44:13;97012.69;;;13.41;55.43
48774;BME280;34576;0.000;0.000;2023-04-10T07:51:14;97011.63;;;13.42;55.27
48774;BME280;34576;0.000;0.000;2023-04-10T07:58:14;97017.97;;;13.41;55.34
48774;BME280;34576;0.000;0.000;2023-04-10T08:05:15;97016.91;;;13.42;55.35
48774;BME280;34576;0.000;0.000;2023-04-10T08:12:15;97013.25;;;13.43;55.10
48774;BME280;34576;0.000;0.000;2023-04-10T08:19:16;97008.78;;;13.44;55.37
48774;BME280;34576;0.000;0.000;2023-04-10T08:26:16;97004.38;;;13.50;55.29
48774;BME280;34576;0.000;0.000;2023-04-10T08:33:18;97001.50;;;13.51;55.23
48774;BME280;34576;0.000;0.000;2023-04-10T08:40:18;97006.53;;;13.53;55.67
48774;BME280;34576;0.000;0.000;2023-04-10T08:47:19;97001.81;;;13.55;55.79
48774;BME280;34576;0.000;0.000;2023-04-10T08:54:22;96991.81;;;13.57;55.50
48774;BME280;34576;0.000;0.000;2023-04-10T09:01:24;96984.44;;;13.59;55.68
48774;BME280;34576;0.000;0.000;2023-04-10T09:08:25;96986.03;;;13.60;55.61
48774;BME280;34576;0.000;0.000;2023-04-10T09:15:25;96985.00;;;13.61;55.63
48774;BME280;34576;0.000;0.000;2023-04-10T09:22:29;96969.47;;;13.64;55.76
48774;BME280;34576;0.000;0.000;2023-04-10T09:30:04;96960.75;;;13.64;55.78
48774;BME280;34576;0.000;0.000;2023-04-10T09:36:58;96948.06;;;13.66;56.02
48774;BME280;34576;0.000;0.000;2023-04-10T09:44:09;96944.16;;;13.69;55.67
48774;BME280;34576;0.000;0.000;2023-04-10T09:51:26;96942.31;;;13.69;55.98
48774;BME280;34576;0.000;0.000;2023-04-10T09:58:27;96934.13;;;13.71;55.90
48774;BME280;34576;0.000;0.000;2023-04-10T10:05:28;96934.94;;;13.71;56.17
48774;BME280;34576;0.000;0.000;2023-04-10T10:12:43;96932.31;;;13.71;56.47
48774;BME280;34576;0.000;0.000;2023-04-10T10:19:48;96914.34;;;13.73;56.21
48774;BME280;34576;0.000;0.000;2023-04-10T10:26:53;96905.38;;;13.74;56.55
48774;BME280;34576;0.000;0.000;2023-04-10T10:33:54;96902.72;;;13.74;56.71
48774;BME280;34576;0.000;0.000;2023-04-10T10:48:13;96893.75;;;13.75;56.83
48774;BME280;34576;0.000;0.000;2023-04-10T11:02:20;96882.69;;;13.78;56.60
48774;BME280;34576;0.000;0.000;2023-04-10T11:09:43;96875.81;;;13.77;57.16
48774;BME280;34576;0.000;0.000;2023-04-10T11:16:41;96881.88;;;13.78;56.81
48774;BME280;34576;0.000;0.000;2023-04-10T11:30:50;96875.56;;;13.79;57.31
48774;BME280;34576;0.000;0.000;2023-04-10T11:37:50;96874.78;;;13.78;57.08
48774;BME280;34576;0.000;0.000;2023-04-10T11:44:51;96868.41;;;13.79;57.30
48774;BME280;34576;0.000;0.000;2023-04-10T11:51:52;96867.38;;;13.80;57.42
48774;BME280;34576;0.000;0.000;2023-04-10T11:58:52;96876.13;;;13.81;57.19
48774;BME280;34576;0.000;0.000;2023-04-10T12:05:53;96882.22;;;13.81;57.54
48774;BME280;34576;0.000;0.000;2023-04-10T12:12:53;96875.88;;;13.83;57.46
48774;BME280;34576;0.000;0.000;2023-04-10T12:19:53;96858.97;;;13.84;57.38
48774;BME280;34576;0.000;0.000;2023-04-10T12:26:54;96849.44;;;13.83;57.62
48774;BME280;34576;0.000;0.000;2023-04-10T12:33:55;96851.03;;;13.84;57.61
48774;BME280;34576;0.000;0.000;2023-04-10T12:40:57;96843.09;;;13.84;57.62
48774;BME280;34576;0.000;0.000;2023-04-10T12:47:57;96848.38;;;13.84;57.41
48774;BME280;34576;0.000;0.000;2023-04-10T12:55:16;96850.00;;;13.85;57.38
48774;BME280;34576;0.000;0.000;2023-04-10T13:02:17;96841.03;;;13.86;57.38
48774;BME280;34576;0.000;0.000;2023-04-10T13:09:20;96837.34;;;13.87;57.88
48774;BME280;34576;0.000;0.000;2023-04-10T13:16:21;96831.00;;;13.88;57.64
48774;BME280;34576;0.000;0.000;2023-04-10T13:23:21;96823.06;;;13.88;57.56
48774;BME280;34576;0.000;0.000;2023-04-10T13:30:21;96824.66;;;13.89;58.03
48774;BME280;34576;0.000;0.000;2023-04-10T13:37:22;96808.00;;;13.88;57.61
48774;BME280;34576;0.000;0.000;2023-04-10T13:44:22;96800.63;;;13.90;58.02
48774;BME280;34576;0.000;0.000;2023-04-10T13:51:22;96779.72;;;13.89;57.82
48774;BME280;34576;0.000;0.000;2023-04-10T13:58:23;96770.75;;;13.90;57.61
48774;BME280;34576;0.000;0.000;2023-04-10T14:05:25;96774.97;;;13.91;57.71
48774;BME280;34576;0.000;0.000;2023-04-10T14:12:25;96763.59;;;13.90;57.70
48774;BME280;34576;0.000;0.000;2023-04-10T14:19:26;96762.81;;;13.90;57.85
48774;BME280;34576;0.000;0.000;2023-04-10T14:26:26;96759.09;;;13.91;58.06
48774;BME280;34576;0.000;0.000;2023-04-10T14:33:27;96747.72;;;13.90;57.75
48774;BME280;34576;0.000;0.000;2023-04-10T14:40:27;96750.13;;;13.92;57.91
48774;BME280;34576;0.000;0.000;2023-04-10T14:47:27;96746.69;;;13.91;57.62
48774;BME280;34576;0.000;0.000;2023-04-10T14:54:28;96744.03;;;13.91;57.48
48774;BME280;34576;0.000;0.000;2023-04-10T15:01:28;96736.91;;;13.92;57.85
48774;BME280;34576;0.000;0.000;2023-04-10T15:08:28;96723.69;;;13.92;57.92
48774;BME280;34576;0.000;0.000;2023-04-10T15:15:28;96710.22;;;13.93;57.57
48774;BME280;34576;0.000;0.000;2023-04-10T15:22:29;96704.91;;;13.93;57.65
48774;BME280;34576;0.000;0.000;2023-04-10T15:29:29;96693.31;;;13.94;57.51
48774;BME280;34576;0.000;0.000;2023-04-10T15:36:29;96689.06;;;13.93;57.77
48774;BME280;34576;0.000;0.000;2023-04-10T15:43:31;96681.94;;;13.94;57.77
48774;BME280;34576;0.000;0.000;2023-04-10T15:50:31;96674.00;;;13.94;57.36
48774;BME280;34576;0.000;0.000;2023-04-10T15:57:32;96681.94;;;13.94;57.46
48774;BME280;34576;0.000;0.000;2023-04-10T16:04:32;96685.38;;;13.94;57.40
48774;BME280;34576;0.000;0.000;2023-04-10T16:11:34;96666.84;;;13.94;57.47
48774;BME280;34576;0.000;0.000;2023-04-10T16:18:34;96655.50;;;13.94;57.41
48774;BME280;34576;0.000;0.000;2023-04-10T16:25:34;96650.75;;;13.96;57.52
48774;BME280;34576;0.000;0.000;2023-04-10T16:32:34;96666.59;;;13.96;57.44
48774;BME280;34576;0.000;0.000;2023-04-10T16:39:35;96666.59;;;13.96;57.35
48774;BME280;34576;0.000;0.000;2023-04-10T16:46:35;96647.31;;;13.95;57.59
48774;BME280;34576;0.000;0.000;2023-04-10T16:53:35;96648.09;;;13.96;57.40
48774;BME280;34576;0.000;0.000;2023-04-10T17:00:36;96661.31;;;13.96;57.87
48774;BME280;34576;0.000;0.000;2023-04-10T17:07:36;96658.41;;;13.97;57.35
48774;BME280;34576;0.000;0.000;2023-04-10T17:14:36;96646.22;;;13.96;57.78
48774;BME280;34576;0.000;0.000;2023-04-10T17:21:38;96642.56;;;13.97;57.82
48774;BME280;34576;0.000;0.000;2023-04-10T17:28:38;96643.38;;;13.98;57.63
48774;BME280;34576;0.000;0.000;2023-04-10T17:35:39;96639.91;;;13.97;57.55
48774;BME280;34576;0.000;0.000;2023-04-10T17:42:39;96634.63;;;13.97;57.61
48774;BME280;34576;0.000;0.000;2023-04-10T17:49:39;96657.13;;;14.00;57.59
48774;BME280;34576;0.000;0.000;2023-04-10T17:56:40;96653.44;;;14.01;57.53
48774;BME280;34576;0.000;0.000;2023-04-10T18:03:41;96642.03;;;14.01;57.43
48774;BME280;34576;0.000;0.000;2023-04-10T18:10:41;96618.25;;;14.01;57.20
48774;BME280;34576;0.000;0.000;2023-04-10T18:17:41;96619.06;;;14.01;56.99
48774;BME280;34576;0.000;0.000;2023-04-10T18:24:45;96618.34;;;14.11;57.35
48774;BME280;34576;0.000;0.000;2023-04-10T18:31:46;96623.03;;;14.04;57.23
48774;BME280;34576;0.000;0.000;2023-04-10T18:38:46;96661.91;;;14.03;56.99
48774;BME280;34576;0.000;0.000;2023-04-10T18:45:46;96668.25;;;14.02;56.79
48774;BME280;34576;0.000;0.000;2023-04-10T18:52:46;96681.47;;;14.02;56.87
48774;BME280;34576;0.000;0.000;2023-04-10T18:59:47;96686.75;;;14.02;56.69
48774;BME280;34576;0.000;0.000;2023-04-10T19:06:47;96694.44;;;14.04;56.73
48774;BME280;34576;0.000;0.000;2023-04-10T19:13:47;96699.97;;;14.02;56.62
48774;BME280;34576;0.000;0.000;2023-04-10T19:20:48;96684.94;;;14.03;56.44
48774;BME280;34576;0.000;0.000;2023-04-10T19:27:48;96706.09;;;14.03;56.38
48774;BME280;34576;0.000;0.000;2023-04-10T19:34:48;96707.91;;;14.02;56.59
48774;BME280;34576;0.000;0.000;2023-04-10T19:41:50;96722.22;;;14.01;56.14
48774;BME280;34576;0.000;0.000;2023-04-10T19:48:50;96719.56;;;14.01;56.42
48774;BME280;34576;0.000;0.000;2023-04-10T19:55:51;96727.50;;;14.01;56.40
48774;BME280;34576;0.000;0.000;2023-04-10T20:02:51;96715.31;;;14.00;56.17
48774;BME280;34576;0.000;0.000;2023-04-10T20:09:51;96721.38;;;14.01;56.54
48774;BME280;34576;0.000;0.000;2023-04-10T20:16:52;96739.91;;;14.01;56.27
48774;BME280;34576;0.000;0.000;2023-04-10T20:23:52;96745.75;;;14.03;56.61
48774;BME280;34576;0.000;0.000;2023-04-10T20:30:53;96711.63;;;14.01;56.62
48774;BME280;34576;0.000;0.000;2023-04-10T20:37:53;96699.44;;;14.00;56.66
48774;BME280;34576;0.000;0.000;2023-04-10T20:44:53;96690.72;;;14.00;56.56
48774;BME280;34576;0.000;0.000;2023-04-10T20:51:54;96692.28;;;14.01;56.31
48774;BME280;34576;0.000;0.000;2023-04-10T20:58:54;96683.56;;;14.00;56.34
48774;BME280;34576;0.000;0.000;2023-04-10T21:05:55;96645.75;;;14.00;56.42
48774;BME280;34576;0.000;0.000;2023-04-10T21:12:55;96613.22;;;13.99;56.61
48774;BME280;34576;0.000;0.000;2023-04-10T21:19:58;96612.94;;;14.01;56.40
48774;BME280;34576;0.000;0.000;2023-04-10T21:26:58;96617.47;;;14.00;56.66
48774;BME280;34576;0.000;0.000;2023-04-10T21:33:59;96619.31;;;14.00;56.54
48774;BME280;34576;0.000;0.000;2023-04-10T21:40:59;96594.69;;;13.99;56.46
48774;BME280;34576;0.000;0.000;2023-04-10T21:48:00;96605.31;;;14.04;56.64
48774;BME280;34576;0.000;0.000;2023-04-10T21:55:00;96592.34;;;14.03;57.20
48774;BME280;34576;0.000;0.000;2023-04-10T22:02:00;96595.34;;;14.11;57.49
48774;BME280;34576;0.000;0.000;2023-04-10T22:09:01;96590.06;;;14.11;57.47
48774;BME280;34576;0.000;0.000;2023-04-10T22:16:01;96580.25;;;14.12;58.08
48774;BME280;34576;0.000;0.000;2023-04-10T22:23:01;96567.84;;;14.12;58.07
48774;BME280;34576;0.000;0.000;2023-04-10T22:30:03;96547.72;;;14.11;58.30
48774;BME280;34576;0.000;0.000;2023-04-10T22:37:04;96535.28;;;14.12;58.57
48774;BME280;34576;0.000;0.000;2023-04-10T22:44:04;96502.50;;;14.13;58.51
48774;BME280;34576;0.000;0.000;2023-04-10T22:51:12;96504.91;;;14.14;58.85
48774;BME280;34576;0.000;0.000;2023-04-10T22:58:12;96471.28;;;14.15;58.78
48774;BME280;34576;0.000;0.000;2023-04-10T23:05:13;96457.84;;;14.17;58.44
48774;BME280;34576;0.000;0.000;2023-04-10T23:12:13;96452.28;;;14.18;58.64
48774;BME280;34576;0.000;0.000;2023-04-10T23:19:14;96471.34;;;14.20;58.59
48774;BME280;34576;0.000;0.000;2023-04-10T23:26:14;96479.28;;;14.20;59.04
48774;BME280;34576;0.000;0.000;2023-04-10T23:33:14;96484.31;;;14.22;58.99
48774;BME280;34576;0.000;0.000;2023-04-10T23:40:15;96458.63;;;14.22;58.85
48774;BME280;34576;0.000;0.000;2023-04-10T23:47:16;96462.09;;;14.23;58.82
48774;BME280;34576;0.000;0.000;2023-04-10T23:54:16;96450.47;;;14.24;58.92
